CheckWX is a tool to help pilots better visualize weather data.  It is not intended as a substitute for an official pre-flight weather briefing.

13:43:35 UTC

46U METAR
Alpine Airport
Alpine, Wyoming, USA
Current

29 mins ago

K46U 201315Z AUTO 00000KT 10SM CLR 09/06 A3014 RMK A01
Observed
Jul-20 @ 13:15 UTC
Visibility
10 SM
Flight Rules
VFR
Cloud Levels
  • Clear skies
Temperature
C / 48°F
Dewpoint
C / 43°F
Humidity
82%
Altimeter
30.14" Hg
Pressure
1020.62 hPa
Previous

49 mins ago

K46U 201255Z AUTO 12005KT 10SM CLR 09/06 A3014 RMK A01
Observed
Jul-20 @ 12:55 UTC
Wind
  • 120° at 5 KTS
Visibility
10 SM
Flight Rules
VFR
Cloud Levels
  • Clear skies
Temperature
C / 48°F
Dewpoint
C / 43°F
Humidity
82%
Altimeter
30.14" Hg
Pressure
1020.62 hPa
Previous

1 hour ago

K46U 201235Z AUTO 14005KT 10SM CLR 09/06 A3014 RMK A01
Observed
Jul-20 @ 12:35 UTC
Wind
  • 140° at 5 KTS
Visibility
10 SM
Flight Rules
VFR
Cloud Levels
  • Clear skies
Temperature
C / 48°F
Dewpoint
C / 43°F
Humidity
82%
Altimeter
30.14" Hg
Pressure
1020.62 hPa